Time;durP1;ratioP1;P1;durP2;ratioP2;P2;SDS_P1;SDS_P2;PMS_P1;PMS_P2;Temp;Humidity;BMP_temperature;BMP_pressure;BME280_temperature;BME280_humidity;BME280_pressure;Samples;Min_cycle;Max_cycle;Signal;HPM_P1;HPM_P2
2021/12/06 00:01:31;;;;;;;11.50;9.80;;;;;;;2.22;100.00;97434.19;5115419;28;20214;-64
2021/12/06 00:04:00;;;;;;;8.83;7.83;;;;;;;2.36;100.00;97437.00;5115218;28;20633;-63
2021/12/06 00:06:30;;;;;;;9.27;7.73;;;;;;;2.42;100.00;97433.22;5097939;28;20211;-63
2021/12/06 00:08:57;;;;;;;9.23;8.17;;;;;;;2.44;100.00;97434.03;5098229;28;20218;-63
2021/12/06 00:11:24;;;;;;;8.93;8.00;;;;;;;2.49;100.00;97437.22;5100948;28;20237;-63
2021/12/06 00:13:51;;;;;;;10.17;7.97;;;;;;;2.51;100.00;97425.81;5106216;28;20221;-63
2021/12/06 00:16:22;;;;;;;8.60;7.70;;;;;;;2.54;100.00;97440.47;5112304;28;20238;-63
2021/12/06 00:18:51;;;;;;;9.77;8.27;;;;;;;2.54;100.00;97436.09;5112721;28;20229;-63
2021/12/06 00:21:18;;;;;;;9.23;8.00;;;;;;;2.55;100.00;97437.78;5109318;28;20215;-64
2021/12/06 00:23:45;;;;;;;9.43;8.03;;;;;;;2.55;100.00;97440.41;5112341;28;20218;-64
2021/12/06 00:26:13;;;;;;;10.53;8.27;;;;;;;2.60;100.00;97443.63;5112176;28;20701;-63
2021/12/06 00:28:42;;;;;;;8.83;7.93;;;;;;;2.59;100.00;97439.34;5112157;28;20216;-63
2021/12/06 00:31:09;;;;;;;9.90;8.07;;;;;;;2.63;100.00;97443.47;5108661;28;20294;-63
2021/12/06 00:33:37;;;;;;;9.37;7.77;;;;;;;2.57;100.00;97443.75;5111208;28;20251;-63
2021/12/06 00:36:07;;;;;;;9.43;7.80;;;;;;;2.60;100.00;97446.25;5112040;28;20238;-64
2021/12/06 00:38:35;;;;;;;9.90;8.23;;;;;;;2.54;100.00;97441.31;5112196;28;20214;-63
2021/12/06 00:41:03;;;;;;;11.10;8.83;;;;;;;2.51;100.00;97448.44;5111867;28;20217;-63
2021/12/06 00:43:32;;;;;;;11.67;9.30;;;;;;;2.50;100.00;97459.81;5114778;28;20210;-63
2021/12/06 00:45:58;;;;;;;11.30;9.83;;;;;;;2.52;100.00;97453.56;5114813;28;20579;-63
2021/12/06 00:48:25;;;;;;;13.47;9.97;;;;;;;2.52;100.00;97458.78;5114610;28;20210;-63
2021/12/06 00:50:51;;;;;;;12.77;10.80;;;;;;;2.52;100.00;97461.38;5111843;28;20221;-63
2021/12/06 00:53:18;;;;;;;13.23;10.97;;;;;;;2.53;100.00;97457.03;5114369;28;20232;-63
2021/12/06 00:55:45;;;;;;;14.80;11.50;;;;;;;2.49;100.00;97464.16;5114484;28;20233;-63
2021/12/06 00:58:11;;;;;;;13.37;10.70;;;;;;;2.49;100.00;97458.94;5112762;28;20213;-63
2021/12/06 01:00:43;;;;;;;14.53;11.73;;;;;;;2.51;100.00;97464.09;5113842;28;20221;-63
2021/12/06 01:03:13;;;;;;;11.83;9.67;;;;;;;2.52;100.00;97464.00;5114417;28;20210;-63
2021/12/06 01:05:39;;;;;;;11.53;10.33;;;;;;;2.54;100.00;97467.41;5104418;28;20217;-63
2021/12/06 01:08:06;;;;;;;12.27;10.03;;;;;;;2.52;100.00;97474.44;5096929;28;20215;-63
2021/12/06 01:10:34;;;;;;;11.87;10.10;;;;;;;2.50;100.00;97481.50;5099272;28;20237;-63
2021/12/06 01:13:01;;;;;;;12.70;10.67;;;;;;;2.54;100.00;97482.19;5096690;28;20214;-63
2021/12/06 01:15:29;;;;;;;12.63;10.57;;;;;;;2.56;100.00;97478.59;5096553;28;20239;-63
2021/12/06 01:17:59;;;;;;;17.00;11.23;;;;;;;2.44;100.00;97481.78;5097015;28;20214;-63
2021/12/06 01:20:29;;;;;;;11.27;10.00;;;;;;;2.45;100.00;97493.06;5098713;28;20217;-63
2021/12/06 01:23:01;;;;;;;14.37;11.30;;;;;;;2.52;100.00;97495.28;5096827;28;20250;-63
2021/12/06 01:25:33;;;;;;;11.90;10.40;;;;;;;2.51;100.00;97493.59;5094723;28;20217;-63
2021/12/06 01:28:36;;;;;;;11.73;9.73;;;;;;;2.47;100.00;97507.72;5101368;28;20290;-63
2021/12/06 01:31:09;;;;;;;11.43;10.23;;;;;;;2.48;100.00;97503.34;5101777;28;20249;-63
2021/12/06 01:39:15;;;;;;;11.40;9.97;;;;;;;2.47;100.00;97528.59;5113773;28;20255;-63
2021/12/06 01:41:48;;;;;;;11.03;9.17;;;;;;;2.46;100.00;97528.66;5112711;28;20218;-63
2021/12/06 01:44:16;;;;;;;11.70;10.50;;;;;;;2.43;100.00;97536.59;5113300;28;20210;-64
2021/12/06 01:46:46;;;;;;;12.43;10.73;;;;;;;2.52;100.00;97542.25;5113451;28;20292;-63
2021/12/06 01:49:15;;;;;;;13.93;10.83;;;;;;;2.50;100.00;97544.09;5112711;28;20209;-63
2021/12/06 01:51:42;;;;;;;13.97;11.47;;;;;;;2.44;100.00;97546.97;5112135;28;20229;-62
2021/12/06 01:54:10;;;;;;;12.43;11.13;;;;;;;2.40;100.00;97558.44;5113405;28;20210;-63
2021/12/06 01:56:37;;;;;;;13.00;10.70;;;;;;;2.41;100.00;97557.56;5113348;28;20234;-63
2021/12/06 01:59:05;;;;;;;11.50;10.23;;;;;;;2.39;100.00;97546.34;5112991;28;20218;-63
2021/12/06 02:01:32;;;;;;;11.67;10.47;;;;;;;2.44;100.00;97541.75;5107655;28;20225;-63
2021/12/06 02:03:59;;;;;;;12.00;10.60;;;;;;;2.43;100.00;97545.28;5110513;28;20220;-63
2021/12/06 02:06:27;;;;;;;13.03;11.50;;;;;;;2.37;100.00;97540.34;5110140;28;20209;-63
2021/12/06 02:08:55;;;;;;;11.80;10.60;;;;;;;2.37;100.00;97537.75;5110636;28;20217;-63
2021/12/06 02:11:25;;;;;;;12.53;11.03;;;;;;;2.30;100.00;97546.78;5107438;28;20264;-63
2021/12/06 02:13:59;;;;;;;12.53;10.27;;;;;;;2.34;100.00;97547.47;5098039;28;20221;-63
2021/12/06 02:16:34;;;;;;;11.60;10.40;;;;;;;2.35;100.00;97550.03;5108879;28;20277;-63
2021/12/06 02:19:04;;;;;;;11.13;9.97;;;;;;;2.36;100.00;97551.72;5109227;28;20218;-63
2021/12/06 02:21:37;;;;;;;12.10;10.43;;;;;;;2.32;100.00;97550.16;5109249;28;20626;-63
2021/12/06 02:24:08;;;;;;;11.13;10.03;;;;;;;2.30;100.00;97557.22;5110311;28;20218;-63
2021/12/06 02:26:36;;;;;;;12.47;9.77;;;;;;;2.29;100.00;97560.72;5110513;28;20217;-63
2021/12/06 02:29:03;;;;;;;12.90;10.70;;;;;;;2.24;100.00;97559.22;5107535;28;20213;-63
2021/12/06 02:31:30;;;;;;;11.80;10.10;;;;;;;2.30;100.00;97572.00;5096815;28;20206;-63
2021/12/06 02:33:56;;;;;;;12.37;10.50;;;;;;;2.28;100.00;97571.22;5110344;28;20587;-64
2021/12/06 02:36:23;;;;;;;10.47;9.30;;;;;;;2.28;100.00;97569.44;5110001;28;20244;-63
2021/12/06 02:38:51;;;;;;;10.40;9.37;;;;;;;2.28;100.00;97573.84;5107701;28;20217;-64
2021/12/06 02:41:19;;;;;;;12.43;10.40;;;;;;;2.28;100.00;97569.44;5109889;28;20242;-63
2021/12/06 02:43:47;;;;;;;10.57;9.47;;;;;;;2.30;100.00;97579.81;5108938;28;20297;-63
2021/12/06 02:46:14;;;;;;;9.97;8.97;;;;;;;2.30;100.00;97575.47;5110290;28;20565;-63
2021/12/06 02:48:41;;;;;;;10.73;9.27;;;;;;;2.27;100.00;97578.19;5107377;28;20679;-63
2021/12/06 02:51:08;;;;;;;10.43;9.43;;;;;;;2.27;100.00;97583.41;5109768;28;20759;-63
2021/12/06 02:53:37;;;;;;;12.33;9.67;;;;;;;2.27;100.00;97578.19;5111502;28;20214;-63
2021/12/06 02:56:17;;;;;;;11.60;10.30;;;;;;;2.30;100.00;97579.81;5114233;28;20266;-63
2021/12/06 02:58:55;;;;;;;11.57;10.37;;;;;;;2.33;100.00;97583.13;5114442;28;20258;-63
2021/12/06 03:01:26;;;;;;;11.10;9.87;;;;;;;2.32;100.00;97583.22;5117047;28;20301;-63
2021/12/06 03:03:53;;;;;;;10.87;9.77;;;;;;;2.31;100.00;97594.53;5116680;28;20210;-63
2021/12/06 03:06:19;;;;;;;11.17;10.07;;;;;;;2.30;100.00;97587.63;5102653;28;20206;-63
2021/12/06 03:08:51;;;;;;;11.20;10.07;;;;;;;2.27;100.00;97590.41;5098297;28;20211;-63
2021/12/06 03:11:22;;;;;;;12.07;10.03;;;;;;;2.30;100.00;97593.72;5099209;28;20313;-63
2021/12/06 03:13:49;;;;;;;10.43;9.43;;;;;;;2.30;100.00;97591.09;5099157;28;20218;-63
2021/12/06 03:16:16;;;;;;;11.67;10.47;;;;;;;2.34;100.00;97599.63;5101586;28;20737;-63
2021/12/06 03:18:43;;;;;;;11.67;10.27;;;;;;;2.36;100.00;97598.66;5099093;28;20240;-63
2021/12/06 03:21:10;;;;;;;10.27;9.23;;;;;;;2.44;100.00;97596.53;5098821;28;20687;-63
2021/12/06 03:23:38;;;;;;;11.27;9.33;;;;;;;2.48;100.00;97595.47;5098753;28;20745;-63
2021/12/06 03:26:05;;;;;;;13.00;10.53;;;;;;;2.49;100.00;97594.56;5101388;28;20656;-63
2021/12/06 03:28:36;;;;;;;11.13;9.93;;;;;;;2.48;100.00;97602.44;5111961;28;20221;-63
2021/12/06 03:31:04;;;;;;;10.80;9.77;;;;;;;2.47;100.00;97608.59;5098577;28;20217;-63
2021/12/06 03:33:30;;;;;;;11.27;9.47;;;;;;;2.42;100.00;97608.81;5097415;28;20677;-63
2021/12/06 03:35:57;;;;;;;11.63;10.43;;;;;;;2.40;100.00;97615.81;5101252;28;20240;-63
2021/12/06 03:38:24;;;;;;;11.80;10.60;;;;;;;2.42;100.00;97618.38;5098552;28;20207;-63
2021/12/06 03:40:50;;;;;;;11.53;10.27;;;;;;;2.39;100.00;97628.94;5098651;28;20234;-63
2021/12/06 03:43:17;;;;;;;11.33;9.90;;;;;;;2.43;100.00;97628.75;5098302;28;20680;-63
2021/12/06 03:45:45;;;;;;;11.83;10.60;;;;;;;2.48;100.00;97632.00;5100992;28;20210;-63
2021/12/06 03:48:11;;;;;;;11.90;10.43;;;;;;;2.52;100.00;97641.34;5099331;28;20214;-63
2021/12/06 03:50:38;;;;;;;14.30;11.57;;;;;;;2.58;100.00;97651.50;5113108;28;20210;-63
2021/12/06 03:53:04;;;;;;;13.40;11.57;;;;;;;2.60;100.00;97639.25;5113170;28;20210;-63
2021/12/06 03:55:31;;;;;;;13.47;11.90;;;;;;;2.65;100.00;97641.66;5110845;28;20210;-63
2021/12/06 03:57:58;;;;;;;12.47;10.27;;;;;;;2.65;100.00;97642.50;5112273;28;20214;-63
2021/12/06 04:00:24;;;;;;;10.63;9.60;;;;;;;2.67;100.00;97645.03;5111010;28;20217;-63
2021/12/06 04:02:52;;;;;;;9.60;8.70;;;;;;;2.67;100.00;97653.72;5112726;28;20220;-63
2021/12/06 04:05:19;;;;;;;9.63;8.70;;;;;;;2.70;100.00;97656.16;5110338;28;20206;-63
2021/12/06 04:07:45;;;;;;;9.77;8.77;;;;;;;2.72;100.00;97656.09;5114436;28;20218;-63
2021/12/06 04:10:13;;;;;;;10.00;9.00;;;;;;;2.72;100.00;97654.34;5115271;28;20214;-63
2021/12/06 04:12:40;;;;;;;10.37;9.07;;;;;;;2.72;100.00;97658.72;5115207;28;20214;-63
2021/12/06 04:15:09;;;;;;;13.23;11.40;;;;;;;2.77;100.00;97660.22;5114967;28;20221;-63
2021/12/06 04:17:35;;;;;;;14.47;12.23;;;;;;;2.74;100.00;97652.50;5115321;28;20246;-63
2021/12/06 04:20:05;;;;;;;14.13;12.63;;;;;;;2.69;100.00;97658.88;5115374;28;20214;-63
2021/12/06 04:22:32;;;;;;;14.67;12.53;;;;;;;2.70;100.00;97671.00;5115200;28;20210;-63
2021/12/06 04:25:01;;;;;;;15.93;13.97;;;;;;;2.65;100.00;97668.59;5114993;28;20217;-63
2021/12/06 04:27:28;;;;;;;16.73;13.83;;;;;;;2.63;100.00;97672.19;5113467;28;20667;-63
2021/12/06 04:29:54;;;;;;;17.13;14.57;;;;;;;2.61;100.00;97668.78;5115120;28;20223;-63
2021/12/06 04:32:23;;;;;;;17.67;14.87;;;;;;;2.57;100.00;97668.06;5114714;28;20217;-63
2021/12/06 04:34:49;;;;;;;18.47;14.63;;;;;;;2.55;100.00;97666.44;5114826;28;20244;-63
2021/12/06 04:37:18;;;;;;;16.60;13.97;;;;;;;2.53;100.00;97679.59;5114817;28;20234;-63
2021/12/06 04:39:45;;;;;;;17.63;14.30;;;;;;;2.55;100.00;97677.75;5114990;28;20210;-62
2021/12/06 04:42:11;;;;;;;19.40;15.27;;;;;;;2.55;100.00;97682.97;5114882;28;20218;-63
2021/12/06 04:44:38;;;;;;;18.60;15.13;;;;;;;2.60;100.00;97690.56;5114325;28;20214;-62
2021/12/06 04:47:06;;;;;;;17.07;14.00;;;;;;;2.66;100.00;97696.38;5114446;28;20221;-63
2021/12/06 04:49:32;;;;;;;17.37;13.97;;;;;;;2.66;100.00;97696.38;5114389;28;20240;-63
2021/12/06 04:52:05;;;;;;;14.47;12.33;;;;;;;2.65;100.00;97705.13;5112894;28;20222;-63
2021/12/06 04:54:36;;;;;;;12.13;10.27;;;;;;;2.60;100.00;97704.47;5114479;28;20214;-63
2021/12/06 04:57:08;;;;;;;10.60;9.53;;;;;;;2.58;100.00;97714.09;5098708;28;20234;-63
2021/12/06 04:59:38;;;;;;;11.07;9.87;;;;;;;2.54;100.00;97707.34;5111870;28;20215;-63
2021/12/06 05:02:10;;;;;;;10.40;9.30;;;;;;;2.56;100.00;97710.72;5111889;28;20213;-63
2021/12/06 05:04:43;;;;;;;10.87;9.73;;;;;;;2.60;100.00;97720.13;5110571;28;20553;-62
2021/12/06 05:07:16;;;;;;;13.83;11.90;;;;;;;2.63;100.00;97721.75;5097005;28;20211;-63
2021/12/06 05:09:45;;;;;;;14.20;12.03;;;;;;;2.66;100.00;97722.47;5097054;28;20223;-63
2021/12/06 05:12:17;;;;;;;14.67;12.70;;;;;;;2.65;100.00;97728.59;5098934;28;20234;-63
2021/12/06 05:14:43;;;;;;;14.20;11.83;;;;;;;2.70;100.00;97734.44;5097964;28;20217;-63
2021/12/06 05:17:10;;;;;;;15.00;12.53;;;;;;;2.69;100.00;97737.97;5110358;28;20240;-62
2021/12/06 05:19:36;;;;;;;15.73;12.77;;;;;;;2.71;100.00;97745.72;5109788;28;20217;-63
2021/12/06 05:22:04;;;;;;;17.60;14.40;;;;;;;2.69;100.00;97753.63;5109107;28;20213;-62
2021/12/06 05:24:30;;;;;;;19.43;14.47;;;;;;;2.66;100.00;97751.16;5110994;28;20206;-62
2021/12/06 05:26:59;;;;;;;18.47;13.83;;;;;;;2.64;100.00;97760.78;5111415;28;20206;-63
2021/12/06 05:29:28;;;;;;;22.73;16.10;;;;;;;2.56;100.00;97768.13;5111343;28;20620;-63
2021/12/06 05:31:57;;;;;;;23.43;15.87;;;;;;;2.55;100.00;97769.03;5108432;28;20297;-63
2021/12/06 05:34:30;;;;;;;25.33;16.50;;;;;;;2.56;100.00;97775.94;5097413;28;20214;-62
2021/12/06 05:36:57;;;;;;;23.67;16.87;;;;;;;2.58;100.00;97778.50;5110700;28;20302;-62
2021/12/06 05:39:24;;;;;;;22.07;15.73;;;;;;;2.62;100.00;97775.69;5110775;28;20206;-62
2021/12/06 05:41:50;;;;;;;23.27;16.80;;;;;;;2.63;100.00;97773.94;5108079;28;20579;-62
2021/12/06 05:44:18;;;;;;;20.87;15.77;;;;;;;2.64;100.00;97780.84;5108995;28;20213;-63
2021/12/06 05:46:45;;;;;;;24.30;16.60;;;;;;;2.60;100.00;97780.13;5110905;28;20217;-63
2021/12/06 05:49:11;;;;;;;23.40;16.77;;;;;;;2.58;100.00;97781.09;5110850;28;20307;-62
2021/12/06 05:51:38;;;;;;;26.00;18.03;;;;;;;2.54;100.00;97780.38;5108052;28;20215;-63
2021/12/06 05:54:04;;;;;;;23.97;17.10;;;;;;;2.49;100.00;97786.69;5110957;28;20218;-62
2021/12/06 05:56:31;;;;;;;27.97;17.83;;;;;;;2.48;100.00;97791.09;5110427;28;20706;-63
2021/12/06 05:58:57;;;;;;;22.73;16.47;;;;;;;2.48;100.00;97806.72;5110777;28;20217;-63
2021/12/06 06:01:29;;;;;;;23.97;17.10;;;;;;;2.54;100.00;97816.91;5108226;28;20670;-63
2021/12/06 06:04:00;;;;;;;22.03;16.33;;;;;;;2.56;100.00;97817.69;5097551;28;20224;-63
2021/12/06 06:06:27;;;;;;;22.10;16.83;;;;;;;2.57;100.00;97811.53;5110177;28;20218;-63
2021/12/06 06:08:54;;;;;;;22.03;16.37;;;;;;;2.66;100.00;97811.16;5112913;28;20212;-62
2021/12/06 06:11:20;;;;;;;23.87;17.20;;;;;;;2.67;100.00;97812.00;5111111;28;20237;-62
2021/12/06 06:13:47;;;;;;;23.07;16.97;;;;;;;2.70;100.00;97825.75;5113242;28;20210;-62
2021/12/06 06:16:17;;;;;;;22.13;16.03;;;;;;;2.75;100.00;97836.84;5112878;28;20217;-62
2021/12/06 06:18:46;;;;;;;20.83;15.80;;;;;;;2.77;100.00;97842.88;5113333;28;20289;-63
2021/12/06 06:21:13;;;;;;;20.60;15.37;;;;;;;2.77;100.00;97840.25;5112861;28;20694;-64
2021/12/06 06:23:39;;;;;;;24.07;16.30;;;;;;;2.82;100.00;97835.66;5113296;28;20221;-62
2021/12/06 06:26:06;;;;;;;21.77;16.27;;;;;;;2.81;100.00;97836.56;5112856;28;20210;-64
2021/12/06 06:28:33;;;;;;;21.70;16.10;;;;;;;2.76;100.00;97843.75;5116034;28;20210;-62
2021/12/06 06:31:00;;;;;;;20.93;16.23;;;;;;;2.88;100.00;97851.06;5111738;28;20225;-62
2021/12/06 06:33:26;;;;;;;19.90;15.57;;;;;;;2.89;100.00;97855.34;5112763;28;20698;-62
2021/12/06 06:35:54;;;;;;;21.30;16.40;;;;;;;2.92;100.00;97855.22;5103690;28;20583;-62
2021/12/06 06:38:22;;;;;;;20.07;15.07;;;;;;;2.97;100.00;97855.91;5114481;28;20233;-63
2021/12/06 06:40:49;;;;;;;20.83;14.53;;;;;;;2.92;100.00;97865.69;5111447;28;20658;-62
2021/12/06 06:43:16;;;;;;;20.33;15.57;;;;;;;2.92;100.00;97860.47;5114180;28;20668;-63
2021/12/06 06:45:42;;;;;;;18.40;14.77;;;;;;;2.89;100.00;97870.19;5114363;28;20210;-62
2021/12/06 06:48:09;;;;;;;18.57;14.73;;;;;;;2.80;100.00;97870.56;5114474;28;20213;-62
2021/12/06 06:50:36;;;;;;;19.37;14.87;;;;;;;2.83;100.00;97876.53;5111599;28;20897;-62
2021/12/06 06:53:04;;;;;;;20.90;15.67;;;;;;;2.77;100.00;97871.56;5100454;28;20217;-63
2021/12/06 06:55:30;;;;;;;22.07;16.73;;;;;;;2.78;100.00;97875.00;5113919;28;20210;-62
2021/12/06 06:57:57;;;;;;;21.53;16.17;;;;;;;2.79;100.00;97876.69;5113847;28;20237;-62
2021/12/06 07:00:27;;;;;;;25.00;17.27;;;;;;;2.83;100.00;97888.72;5111825;28;20206;-62
2021/12/06 07:02:54;;;;;;;22.40;16.37;;;;;;;2.86;100.00;97899.88;5098733;28;20221;-63
2021/12/06 07:05:22;;;;;;;20.90;16.00;;;;;;;2.88;100.00;97903.25;5107042;28;20214;-63
2021/12/06 07:07:49;;;;;;;22.40;16.30;;;;;;;2.91;100.00;97916.19;5099003;28;20594;-62
2021/12/06 07:10:17;;;;;;;22.30;16.43;;;;;;;2.96;100.00;97909.00;5101741;28;20677;-63
2021/12/06 07:12:46;;;;;;;24.90;17.40;;;;;;;2.97;100.00;97910.72;5100455;28;20228;-62
2021/12/06 07:15:15;;;;;;;23.47;16.17;;;;;;;2.97;100.00;97915.06;5113941;28;20214;-62
2021/12/06 07:17:43;;;;;;;21.93;16.27;;;;;;;2.96;100.00;97918.59;5113341;28;20249;-62
2021/12/06 07:20:12;;;;;;;22.50;16.67;;;;;;;2.96;100.00;97919.47;5110769;28;20211;-62
2021/12/06 07:22:38;;;;;;;22.10;15.87;;;;;;;2.95;100.00;97924.72;5113476;28;20684;-62
2021/12/06 07:25:06;;;;;;;21.83;16.37;;;;;;;2.95;100.00;97917.72;5113403;28;20225;-62
2021/12/06 07:27:34;;;;;;;19.87;15.90;;;;;;;2.93;100.00;97924.78;5112703;28;20218;-62
2021/12/06 07:30:01;;;;;;;23.00;15.93;;;;;;;2.95;100.00;97922.94;5109977;28;20672;-62
2021/12/06 07:32:28;;;;;;;21.67;16.17;;;;;;;2.90;100.00;97918.84;5113390;28;20214;-62
2021/12/06 07:34:55;;;;;;;21.13;16.67;;;;;;;2.91;100.00;97923.16;5113268;28;20222;-62
2021/12/06 07:37:22;;;;;;;20.97;15.57;;;;;;;2.86;100.00;97928.56;5113550;28;20241;-62
2021/12/06 07:39:48;;;;;;;22.57;16.00;;;;;;;2.88;100.00;97936.34;5109890;28;20207;-62
2021/12/06 07:42:15;;;;;;;21.40;15.87;;;;;;;2.86;100.00;97943.38;5113182;28;20206;-62
2021/12/06 07:44:43;;;;;;;21.67;15.97;;;;;;;2.84;100.00;97940.84;5113332;28;20218;-62
2021/12/06 07:47:12;;;;;;;19.77;14.70;;;;;;;2.93;100.00;97942.22;5113444;28;20214;-62
2021/12/06 07:49:39;;;;;;;21.73;15.00;;;;;;;2.98;100.00;97943.72;5110199;28;20222;-62
2021/12/06 07:52:07;;;;;;;21.07;15.77;;;;;;;3.03;100.00;97952.22;5113216;28;20218;-62
2021/12/06 07:54:34;;;;;;;19.30;14.20;;;;;;;3.05;100.00;97954.75;5111507;28;20560;-62
2021/12/06 07:57:01;;;;;;;18.50;14.23;;;;;;;3.02;100.00;97955.75;5112861;28;20233;-62
2021/12/06 07:59:28;;;;;;;18.10;13.87;;;;;;;2.99;100.00;97950.63;5110087;28;20222;-62
2021/12/06 08:01:56;;;;;;;20.07;15.20;;;;;;;2.97;100.00;97955.09;5099401;28;20225;-63
2021/12/06 08:04:23;;;;;;;18.23;13.53;;;;;;;2.95;100.00;97949.06;5112673;28;20224;-62
2021/12/06 08:06:50;;;;;;;18.73;14.23;;;;;;;2.95;100.00;97959.50;5112834;28;20210;-62
2021/12/06 08:09:17;;;;;;;18.37;14.13;;;;;;;2.96;100.00;97957.75;5115393;28;20225;-62
2021/12/06 08:11:44;;;;;;;18.57;14.97;;;;;;;2.94;100.00;97957.81;5099535;28;20246;-62
2021/12/06 08:14:11;;;;;;;20.13;14.90;;;;;;;2.97;100.00;97952.47;5112723;28;20218;-62
2021/12/06 08:16:42;;;;;;;21.10;14.77;;;;;;;3.01;100.00;97958.41;5112637;28;20249;-62
2021/12/06 08:19:10;;;;;;;21.97;16.13;;;;;;;2.97;100.00;97962.06;5109609;28;20219;-62
2021/12/06 08:21:37;;;;;;;22.30;14.83;;;;;;;2.92;100.00;97959.63;5110948;28;20213;-62
2021/12/06 08:24:06;;;;;;;22.27;15.73;;;;;;;3.01;100.00;97963.63;5112543;28;20288;-62
2021/12/06 08:26:37;;;;;;;22.40;15.67;;;;;;;3.06;100.00;97964.28;5112585;28;20218;-63
2021/12/06 08:29:07;;;;;;;23.63;17.27;;;;;;;3.08;100.00;97965.94;5100632;28;20211;-62
2021/12/06 08:31:33;;;;;;;26.17;17.20;;;;;;;3.13;100.00;97974.38;5097569;28;20730;-62
2021/12/06 08:34:00;;;;;;;26.00;16.07;;;;;;;3.15;100.00;97976.94;5097904;28;20241;-62
2021/12/06 08:36:28;;;;;;;25.03;15.90;;;;;;;3.20;100.00;97972.38;5097567;28;20211;-62
2021/12/06 08:38:55;;;;;;;25.20;16.43;;;;;;;3.26;100.00;97985.19;5111637;28;20233;-62
2021/12/06 08:41:25;;;;;;;27.67;16.50;;;;;;;3.32;100.00;97984.91;5114607;28;20221;-62
2021/12/06 08:43:54;;;;;;;24.70;15.50;;;;;;;3.37;100.00;97989.00;5114866;28;20211;-62
2021/12/06 08:46:26;;;;;;;25.47;14.97;;;;;;;3.44;100.00;98000.91;5112830;28;20562;-62
2021/12/06 08:48:54;;;;;;;24.33;15.43;;;;;;;3.48;100.00;97999.84;5114758;28;20214;-62
2021/12/06 08:51:23;;;;;;;22.57;14.70;;;;;;;3.54;100.00;97996.97;5113650;28;20593;-62
2021/12/06 08:53:52;;;;;;;25.07;14.60;;;;;;;3.59;100.00;97995.00;5114764;28;20225;-62
2021/12/06 08:56:20;;;;;;;21.73;13.37;;;;;;;3.70;100.00;98000.63;5114255;28;20219;-62
2021/12/06 08:58:48;;;;;;;24.70;15.07;;;;;;;3.76;100.00;97997.75;5109511;28;20688;-62
2021/12/06 09:01:16;;;;;;;24.80;14.63;;;;;;;3.83;100.00;97999.16;5109139;28;20225;-62
2021/12/06 09:03:43;;;;;;;25.80;15.83;;;;;;;3.89;100.00;97998.03;5103192;28;20664;-62
2021/12/06 09:06:11;;;;;;;25.17;15.80;;;;;;;3.84;100.00;98000.84;5096377;28;20218;-62
2021/12/06 09:08:40;;;;;;;26.20;15.93;;;;;;;3.91;100.00;97997.03;5100655;28;20219;-61
2021/12/06 09:11:10;;;;;;;24.70;14.30;;;;;;;3.98;100.00;97997.63;5108590;28;20325;-62
2021/12/06 09:13:38;;;;;;;23.43;13.93;;;;;;;4.13;100.00;98003.00;5107854;28;20213;-62
2021/12/06 09:16:06;;;;;;;24.97;14.40;;;;;;;4.08;100.00;98015.44;5108162;28;20217;-61
2021/12/06 09:18:37;;;;;;;22.90;13.37;;;;;;;4.10;100.00;98013.59;5108859;28;20238;-63
2021/12/06 09:21:05;;;;;;;23.33;15.17;;;;;;;4.05;100.00;98015.59;5099698;28;20240;-62
2021/12/06 09:23:32;;;;;;;23.73;14.83;;;;;;;4.12;100.00;98017.00;5100687;28;20301;-62
2021/12/06 09:25:59;;;;;;;24.57;13.93;;;;;;;4.17;100.00;98009.78;5103633;28;20222;-62
2021/12/06 09:28:28;;;;;;;22.53;14.60;;;;;;;4.23;100.00;98019.13;5103787;28;20218;-65
2021/12/06 09:30:55;;;;;;;21.27;14.23;;;;;;;4.27;100.00;98018.09;5099048;28;20744;-62
2021/12/06 09:33:23;;;;;;;20.33;13.37;;;;;;;4.35;100.00;98021.19;5106826;28;20226;-62
2021/12/06 09:35:53;;;;;;;19.80;13.63;;;;;;;4.39;100.00;98026.19;5102170;28;20221;-63
2021/12/06 09:38:24;;;;;;;20.43;13.70;;;;;;;4.41;100.00;98026.97;5102326;28;20241;-61
2021/12/06 09:40:54;;;;;;;21.50;14.03;;;;;;;4.41;100.00;98028.75;5095625;28;20198;-62
2021/12/06 09:43:21;;;;;;;19.93;13.20;;;;;;;4.42;100.00;98031.31;5105794;28;20233;-62
2021/12/06 09:45:50;;;;;;;22.93;14.63;;;;;;;4.38;100.00;98032.34;5098011;28;20219;-62
2021/12/06 09:48:19;;;;;;;22.73;13.87;;;;;;;4.33;100.00;98036.09;5103741;28;20223;-62
2021/12/06 09:50:49;;;;;;;21.87;14.57;;;;;;;4.34;100.00;98033.41;5099549;28;20219;-62
2021/12/06 09:53:20;;;;;;;27.00;15.00;;;;;;;4.32;100.00;98032.63;5099505;28;20626;-62
2021/12/06 09:55:50;;;;;;;22.20;14.30;;;;;;;4.31;100.00;98044.03;5102393;28;20215;-62
2021/12/06 09:58:16;;;;;;;20.57;13.57;;;;;;;4.41;100.00;98037.44;5095560;28;20240;-62
2021/12/06 10:00:45;;;;;;;22.07;14.17;;;;;;;4.46;100.00;98035.44;5102512;27;20219;-62
2021/12/06 10:03:16;;;;;;;20.33;13.17;;;;;;;4.47;100.00;98029.28;5099946;28;20211;-62
2021/12/06 10:05:43;;;;;;;20.07;12.57;;;;;;;4.56;100.00;98028.88;5108546;28;20216;-63
2021/12/06 10:08:09;;;;;;;18.83;12.37;;;;;;;4.60;100.00;98019.97;5097739;28;20206;-62
2021/12/06 10:10:37;;;;;;;22.13;13.53;;;;;;;4.64;100.00;98018.88;5103038;28;20695;-62
2021/12/06 10:13:05;;;;;;;20.77;12.80;;;;;;;4.68;100.00;98017.81;5099786;28;20325;-62
2021/12/06 10:15:31;;;;;;;18.67;11.40;;;;;;;4.72;100.00;98011.53;5103291;28;20241;-62
2021/12/06 10:18:00;;;;;;;20.10;11.17;;;;;;;4.77;100.00;98006.06;5109332;28;20262;-62
2021/12/06 10:20:30;;;;;;;19.87;11.77;;;;;;;4.85;100.00;98004.78;5106210;28;20217;-63
2021/12/06 10:22:56;;;;;;;17.23;11.37;;;;;;;4.97;100.00;98009.44;5109515;28;20240;-63
2021/12/06 10:25:37;;;;;;;19.00;11.87;;;;;;;5.14;100.00;98001.56;5109686;28;20215;-63
2021/12/06 10:28:05;;;;;;;16.17;11.00;;;;;;;5.28;100.00;97988.63;5107271;28;20215;-64
2021/12/06 10:30:33;;;;;;;17.70;11.73;;;;;;;5.32;100.00;97987.53;5108670;28;20222;-63
2021/12/06 10:33:06;;;;;;;17.13;11.67;;;;;;;5.40;100.00;97980.16;5100100;28;20226;-63
2021/12/06 10:35:34;;;;;;;17.17;11.93;;;;;;;5.46;100.00;97982.47;5107503;28;20231;-63
2021/12/06 10:38:01;;;;;;;16.10;11.37;;;;;;;5.52;100.00;97982.16;5105922;28;20718;-64
2021/12/06 10:40:31;;;;;;;15.33;10.40;;;;;;;5.51;100.00;97972.56;5108754;28;20221;-64
2021/12/06 10:43:00;;;;;;;15.53;10.83;;;;;;;5.48;100.00;97988.47;5109266;28;20241;-63
2021/12/06 10:45:30;;;;;;;17.50;11.93;;;;;;;5.44;100.00;97984.28;5109172;28;20223;-63
2021/12/06 10:48:15;;;;;;;13.87;10.00;;;;;;;5.35;100.00;97989.16;5106182;28;20222;-65
2021/12/06 10:50:46;;;;;;;17.10;11.30;;;;;;;5.22;100.00;97985.47;5100034;28;20208;-63
2021/12/06 10:53:14;;;;;;;16.10;10.07;;;;;;;5.23;100.00;97985.41;5109137;28;20293;-63
2021/12/06 10:55:42;;;;;;;15.77;10.53;;;;;;;5.23;100.00;97980.16;5106627;28;20215;-63
2021/12/06 10:58:14;;;;;;;13.07;9.00;;;;;;;5.27;100.00;97981.72;5108151;28;20242;-63
2021/12/06 11:00:45;;;;;;;15.43;10.33;;;;;;;5.34;100.00;97977.84;5107183;28;20211;-63
2021/12/06 11:03:24;;;;;;;14.03;9.60;;;;;;;5.49;100.00;97984.91;5108693;28;20220;-63
2021/12/06 11:05:57;;;;;;;16.57;11.33;;;;;;;5.71;100.00;97982.88;5100500;28;20219;-63
2021/12/06 11:08:24;;;;;;;13.60;9.57;;;;;;;5.82;100.00;97985.84;5099534;28;20212;-63
2021/12/06 11:10:54;;;;;;;14.60;10.43;;;;;;;5.78;100.00;97981.63;5108768;28;20236;-63
2021/12/06 11:13:24;;;;;;;14.37;9.43;;;;;;;5.67;100.00;97986.59;5106494;28;20591;-63
2021/12/06 11:15:57;;;;;;;12.20;9.50;;;;;;;5.72;100.00;97989.81;5109128;28;20297;-63
2021/12/06 11:18:36;;;;;;;12.67;8.47;;;;;;;5.80;100.00;97978.97;5112320;28;20322;-63
2021/12/06 11:21:14;;;;;;;11.83;8.07;;;;;;;5.76;99.17;97978.25;5111359;28;20221;-63
2021/12/06 11:23:56;;;;;;;12.97;8.10;;;;;;;5.69;98.11;97974.22;5112547;28;20334;-63
2021/12/06 11:26:23;;;;;;;10.83;7.57;;;;;;;5.56;96.60;97974.97;5112611;28;20216;-64
2021/12/06 11:28:49;;;;;;;10.53;7.30;;;;;;;5.49;96.50;97965.72;5110520;28;20246;-63
2021/12/06 11:31:18;;;;;;;9.87;7.43;;;;;;;5.47;96.60;97968.44;5109679;28;20678;-63